sensor_id;sensor_type;location;lat;lon;timestamp;P1;durP1;ratioP1;P2;durP2;ratioP2
55575;SDS011;41437;45.478;9.116;2023-02-11T00:00:48;62.13;;;31.05;;
55575;SDS011;41437;45.478;9.116;2023-02-11T00:03:50;59.47;;;30.27;;
55575;SDS011;41437;45.478;9.116;2023-02-11T00:06:52;62.60;;;30.73;;
55575;SDS011;41437;45.478;9.116;2023-02-11T00:09:54;62.30;;;30.33;;
55575;SDS011;41437;45.478;9.116;2023-02-11T00:12:55;54.08;;;28.23;;
55575;SDS011;41437;45.478;9.116;2023-02-11T00:15:57;60.13;;;29.92;;
55575;SDS011;41437;45.478;9.116;2023-02-11T00:19:00;62.33;;;30.48;;
55575;SDS011;41437;45.478;9.116;2023-02-11T00:22:05;60.90;;;31.02;;
55575;SDS011;41437;45.478;9.116;2023-02-11T00:25:07;60.17;;;29.02;;
55575;SDS011;41437;45.478;9.116;2023-02-11T00:28:09;60.22;;;31.17;;
55575;SDS011;41437;45.478;9.116;2023-02-11T00:31:11;55.60;;;29.85;;
55575;SDS011;41437;45.478;9.116;2023-02-11T00:34:15;55.38;;;30.35;;
55575;SDS011;41437;45.478;9.116;2023-02-11T00:37:17;61.80;;;32.00;;
55575;SDS011;41437;45.478;9.116;2023-02-11T00:40:18;67.97;;;33.47;;
55575;SDS011;41437;45.478;9.116;2023-02-11T00:43:20;58.03;;;31.15;;
55575;SDS011;41437;45.478;9.116;2023-02-11T00:46:22;60.38;;;30.98;;
55575;SDS011;41437;45.478;9.116;2023-02-11T00:49:25;61.35;;;31.23;;
55575;SDS011;41437;45.478;9.116;2023-02-11T00:52:27;62.65;;;32.78;;
55575;SDS011;41437;45.478;9.116;2023-02-11T00:55:28;67.15;;;34.13;;
55575;SDS011;41437;45.478;9.116;2023-02-11T00:58:30;69.35;;;32.58;;
55575;SDS011;41437;45.478;9.116;2023-02-11T01:01:32;62.55;;;32.28;;
55575;SDS011;41437;45.478;9.116;2023-02-11T01:04:35;72.13;;;34.28;;
55575;SDS011;41437;45.478;9.116;2023-02-11T01:07:37;67.00;;;32.95;;
55575;SDS011;41437;45.478;9.116;2023-02-11T01:10:40;64.40;;;33.35;;
55575;SDS011;41437;45.478;9.116;2023-02-11T01:13:43;67.03;;;34.83;;
55575;SDS011;41437;45.478;9.116;2023-02-11T01:16:45;63.75;;;32.60;;
55575;SDS011;41437;45.478;9.116;2023-02-11T01:19:48;71.97;;;36.33;;
55575;SDS011;41437;45.478;9.116;2023-02-11T01:22:50;67.77;;;34.73;;
55575;SDS011;41437;45.478;9.116;2023-02-11T01:25:52;74.38;;;36.42;;
55575;SDS011;41437;45.478;9.116;2023-02-11T01:28:55;72.50;;;36.47;;
55575;SDS011;41437;45.478;9.116;2023-02-11T01:31:59;71.15;;;37.08;;
55575;SDS011;41437;45.478;9.116;2023-02-11T01:35:02;77.93;;;37.55;;
55575;SDS011;41437;45.478;9.116;2023-02-11T01:38:05;71.28;;;35.63;;
55575;SDS011;41437;45.478;9.116;2023-02-11T01:41:08;73.22;;;34.55;;
55575;SDS011;41437;45.478;9.116;2023-02-11T01:44:21;69.03;;;33.95;;
55575;SDS011;41437;45.478;9.116;2023-02-11T01:47:25;73.77;;;36.17;;
55575;SDS011;41437;45.478;9.116;2023-02-11T01:50:28;65.93;;;35.25;;
55575;SDS011;41437;45.478;9.116;2023-02-11T01:53:30;73.10;;;37.05;;
55575;SDS011;41437;45.478;9.116;2023-02-11T01:56:52;66.55;;;34.30;;
55575;SDS011;41437;45.478;9.116;2023-02-11T02:00:15;76.85;;;35.85;;
55575;SDS011;41437;45.478;9.116;2023-02-11T02:03:28;73.80;;;35.03;;
55575;SDS011;41437;45.478;9.116;2023-02-11T02:06:36;69.57;;;37.25;;
55575;SDS011;41437;45.478;9.116;2023-02-11T02:09:45;64.85;;;34.15;;
55575;SDS011;41437;45.478;9.116;2023-02-11T02:12:53;63.13;;;34.22;;
55575;SDS011;41437;45.478;9.116;2023-02-11T02:15:55;65.50;;;35.70;;
55575;SDS011;41437;45.478;9.116;2023-02-11T02:19:02;65.35;;;32.60;;
55575;SDS011;41437;45.478;9.116;2023-02-11T02:29:41;75.30;;;34.78;;
55575;SDS011;41437;45.478;9.116;2023-02-11T02:33:12;66.57;;;34.75;;
55575;SDS011;41437;45.478;9.116;2023-02-11T02:36:21;71.03;;;35.47;;
55575;SDS011;41437;45.478;9.116;2023-02-11T02:39:30;70.40;;;35.92;;
55575;SDS011;41437;45.478;9.116;2023-02-11T02:42:36;67.15;;;34.20;;
55575;SDS011;41437;45.478;9.116;2023-02-11T02:45:39;75.53;;;35.27;;
55575;SDS011;41437;45.478;9.116;2023-02-11T02:48:46;71.70;;;34.67;;
55575;SDS011;41437;45.478;9.116;2023-02-11T02:51:57;77.82;;;36.80;;
55575;SDS011;41437;45.478;9.116;2023-02-11T02:55:19;71.40;;;34.28;;
55575;SDS011;41437;45.478;9.116;2023-02-11T02:58:36;65.57;;;32.88;;
55575;SDS011;41437;45.478;9.116;2023-02-11T03:02:01;66.75;;;32.78;;
55575;SDS011;41437;45.478;9.116;2023-02-11T03:05:15;60.13;;;31.35;;
55575;SDS011;41437;45.478;9.116;2023-02-11T03:08:22;59.88;;;30.67;;
55575;SDS011;41437;45.478;9.116;2023-02-11T03:11:28;57.53;;;28.63;;
55575;SDS011;41437;45.478;9.116;2023-02-11T03:14:32;62.47;;;29.58;;
55575;SDS011;41437;45.478;9.116;2023-02-11T03:17:37;60.33;;;30.00;;
55575;SDS011;41437;45.478;9.116;2023-02-11T03:20:43;56.92;;;29.65;;
55575;SDS011;41437;45.478;9.116;2023-02-11T03:23:52;57.20;;;28.90;;
55575;SDS011;41437;45.478;9.116;2023-02-11T03:26:56;56.08;;;28.83;;
55575;SDS011;41437;45.478;9.116;2023-02-11T03:30:04;56.17;;;29.77;;
55575;SDS011;41437;45.478;9.116;2023-02-11T03:33:13;60.60;;;28.92;;
55575;SDS011;41437;45.478;9.116;2023-02-11T03:36:27;59.60;;;30.85;;
55575;SDS011;41437;45.478;9.116;2023-02-11T03:39:37;63.88;;;29.92;;
55575;SDS011;41437;45.478;9.116;2023-02-11T03:42:45;61.15;;;30.70;;
55575;SDS011;41437;45.478;9.116;2023-02-11T03:45:51;62.53;;;30.80;;
55575;SDS011;41437;45.478;9.116;2023-02-11T03:48:57;65.13;;;30.40;;
55575;SDS011;41437;45.478;9.116;2023-02-11T03:52:07;58.65;;;29.88;;
55575;SDS011;41437;45.478;9.116;2023-02-11T03:55:11;58.13;;;29.48;;
55575;SDS011;41437;45.478;9.116;2023-02-11T03:58:16;58.25;;;28.73;;
55575;SDS011;41437;45.478;9.116;2023-02-11T04:01:18;59.85;;;29.48;;
55575;SDS011;41437;45.478;9.116;2023-02-11T04:04:20;55.42;;;27.25;;
55575;SDS011;41437;45.478;9.116;2023-02-11T04:07:23;55.95;;;26.65;;
55575;SDS011;41437;45.478;9.116;2023-02-11T04:10:25;57.45;;;27.90;;
55575;SDS011;41437;45.478;9.116;2023-02-11T04:13:27;53.58;;;27.98;;
55575;SDS011;41437;45.478;9.116;2023-02-11T04:16:28;55.15;;;28.55;;
55575;SDS011;41437;45.478;9.116;2023-02-11T04:19:30;53.97;;;28.27;;
55575;SDS011;41437;45.478;9.116;2023-02-11T04:25:36;61.28;;;30.25;;
55575;SDS011;41437;45.478;9.116;2023-02-11T04:28:37;56.75;;;29.70;;
55575;SDS011;41437;45.478;9.116;2023-02-11T04:31:39;56.85;;;27.98;;
55575;SDS011;41437;45.478;9.116;2023-02-11T04:34:40;55.08;;;28.95;;
55575;SDS011;41437;45.478;9.116;2023-02-11T04:37:43;55.92;;;29.38;;
55575;SDS011;41437;45.478;9.116;2023-02-11T04:40:46;60.88;;;29.58;;
55575;SDS011;41437;45.478;9.116;2023-02-11T04:43:48;54.97;;;28.67;;
55575;SDS011;41437;45.478;9.116;2023-02-11T04:46:49;58.25;;;30.50;;
55575;SDS011;41437;45.478;9.116;2023-02-11T04:49:51;59.00;;;29.48;;
55575;SDS011;41437;45.478;9.116;2023-02-11T04:52:54;55.05;;;30.23;;
55575;SDS011;41437;45.478;9.116;2023-02-11T04:55:56;58.80;;;29.77;;
55575;SDS011;41437;45.478;9.116;2023-02-11T04:58:57;53.15;;;28.80;;
55575;SDS011;41437;45.478;9.116;2023-02-11T05:01:59;57.90;;;31.50;;
55575;SDS011;41437;45.478;9.116;2023-02-11T05:05:00;60.85;;;29.98;;
55575;SDS011;41437;45.478;9.116;2023-02-11T05:08:04;56.78;;;29.45;;
55575;SDS011;41437;45.478;9.116;2023-02-11T05:11:06;58.65;;;29.27;;
55575;SDS011;41437;45.478;9.116;2023-02-11T05:14:08;58.58;;;29.98;;
55575;SDS011;41437;45.478;9.116;2023-02-11T05:17:10;57.53;;;30.13;;
55575;SDS011;41437;45.478;9.116;2023-02-11T05:20:12;58.58;;;29.95;;
55575;SDS011;41437;45.478;9.116;2023-02-11T05:23:15;58.65;;;30.52;;
55575;SDS011;41437;45.478;9.116;2023-02-11T05:26:17;62.35;;;31.02;;
55575;SDS011;41437;45.478;9.116;2023-02-11T05:29:19;59.63;;;30.77;;
55575;SDS011;41437;45.478;9.116;2023-02-11T05:32:20;69.68;;;30.60;;
55575;SDS011;41437;45.478;9.116;2023-02-11T05:35:22;63.50;;;31.65;;
55575;SDS011;41437;45.478;9.116;2023-02-11T05:38:25;64.00;;;30.55;;
55575;SDS011;41437;45.478;9.116;2023-02-11T05:41:27;60.47;;;31.63;;
55575;SDS011;41437;45.478;9.116;2023-02-11T05:44:28;68.95;;;32.70;;
55575;SDS011;41437;45.478;9.116;2023-02-11T05:47:32;64.00;;;31.77;;
55575;SDS011;41437;45.478;9.116;2023-02-11T05:50:33;63.70;;;31.55;;
55575;SDS011;41437;45.478;9.116;2023-02-11T05:53:36;61.67;;;30.67;;
55575;SDS011;41437;45.478;9.116;2023-02-11T05:56:38;58.10;;;30.83;;
55575;SDS011;41437;45.478;9.116;2023-02-11T05:59:39;54.08;;;30.50;;
55575;SDS011;41437;45.478;9.116;2023-02-11T06:02:41;61.25;;;29.98;;
55575;SDS011;41437;45.478;9.116;2023-02-11T06:05:43;59.10;;;30.23;;
55575;SDS011;41437;45.478;9.116;2023-02-11T06:08:46;53.72;;;30.65;;
55575;SDS011;41437;45.478;9.116;2023-02-11T06:11:47;60.58;;;31.45;;
55575;SDS011;41437;45.478;9.116;2023-02-11T06:14:49;62.83;;;30.88;;
55575;SDS011;41437;45.478;9.116;2023-02-11T06:17:50;67.43;;;32.75;;
55575;SDS011;41437;45.478;9.116;2023-02-11T06:20:52;60.95;;;29.80;;
55575;SDS011;41437;45.478;9.116;2023-02-11T06:23:55;54.72;;;29.98;;
55575;SDS011;41437;45.478;9.116;2023-02-11T06:26:57;55.67;;;28.55;;
55575;SDS011;41437;45.478;9.116;2023-02-11T06:29:58;56.08;;;27.52;;
55575;SDS011;41437;45.478;9.116;2023-02-11T06:33:00;58.58;;;28.02;;
55575;SDS011;41437;45.478;9.116;2023-02-11T06:36:01;51.15;;;26.95;;
55575;SDS011;41437;45.478;9.116;2023-02-11T06:39:06;57.17;;;28.15;;
55575;SDS011;41437;45.478;9.116;2023-02-11T06:42:08;57.58;;;27.48;;
55575;SDS011;41437;45.478;9.116;2023-02-11T06:45:11;59.97;;;29.60;;
55575;SDS011;41437;45.478;9.116;2023-02-11T06:48:13;53.88;;;27.92;;
55575;SDS011;41437;45.478;9.116;2023-02-11T06:51:15;53.55;;;28.05;;
55575;SDS011;41437;45.478;9.116;2023-02-11T06:54:18;58.75;;;30.73;;
55575;SDS011;41437;45.478;9.116;2023-02-11T06:57:20;58.03;;;29.80;;
55575;SDS011;41437;45.478;9.116;2023-02-11T07:00:21;63.58;;;32.10;;
55575;SDS011;41437;45.478;9.116;2023-02-11T07:03:23;61.90;;;30.33;;
55575;SDS011;41437;45.478;9.116;2023-02-11T07:06:25;53.22;;;29.17;;
55575;SDS011;41437;45.478;9.116;2023-02-11T07:09:29;55.13;;;27.85;;
55575;SDS011;41437;45.478;9.116;2023-02-11T07:12:31;54.60;;;29.20;;
55575;SDS011;41437;45.478;9.116;2023-02-11T07:15:33;54.05;;;28.20;;
55575;SDS011;41437;45.478;9.116;2023-02-11T07:18:35;53.10;;;27.20;;
55575;SDS011;41437;45.478;9.116;2023-02-11T07:21:37;52.85;;;27.50;;
55575;SDS011;41437;45.478;9.116;2023-02-11T07:24:40;57.85;;;28.67;;
55575;SDS011;41437;45.478;9.116;2023-02-11T07:27:41;56.10;;;28.13;;
55575;SDS011;41437;45.478;9.116;2023-02-11T07:30:43;58.22;;;29.98;;
55575;SDS011;41437;45.478;9.116;2023-02-11T07:33:44;58.65;;;30.55;;
55575;SDS011;41437;45.478;9.116;2023-02-11T07:36:46;54.97;;;30.63;;
55575;SDS011;41437;45.478;9.116;2023-02-11T07:39:49;62.40;;;30.95;;
55575;SDS011;41437;45.478;9.116;2023-02-11T07:42:53;57.80;;;29.45;;
55575;SDS011;41437;45.478;9.116;2023-02-11T07:45:57;60.92;;;31.75;;
55575;SDS011;41437;45.478;9.116;2023-02-11T07:48:59;60.70;;;31.08;;
55575;SDS011;41437;45.478;9.116;2023-02-11T07:52:00;65.55;;;30.17;;
55575;SDS011;41437;45.478;9.116;2023-02-11T07:58:09;58.83;;;29.53;;
55575;SDS011;41437;45.478;9.116;2023-02-11T08:01:12;57.42;;;29.33;;
55575;SDS011;41437;45.478;9.116;2023-02-11T08:04:15;57.50;;;28.17;;
55575;SDS011;41437;45.478;9.116;2023-02-11T08:10:23;54.83;;;28.67;;
55575;SDS011;41437;45.478;9.116;2023-02-11T08:13:24;51.38;;;29.02;;
55575;SDS011;41437;45.478;9.116;2023-02-11T08:16:27;56.80;;;29.92;;
55575;SDS011;41437;45.478;9.116;2023-02-11T08:19:30;54.00;;;29.05;;
55575;SDS011;41437;45.478;9.116;2023-02-11T08:22:32;56.05;;;29.60;;
55575;SDS011;41437;45.478;9.116;2023-02-11T08:25:37;55.83;;;29.13;;
55575;SDS011;41437;45.478;9.116;2023-02-11T08:28:39;59.13;;;29.63;;
55575;SDS011;41437;45.478;9.116;2023-02-11T08:31:43;57.95;;;32.05;;
55575;SDS011;41437;45.478;9.116;2023-02-11T08:37:51;56.43;;;30.23;;
55575;SDS011;41437;45.478;9.116;2023-02-11T08:40:54;53.00;;;27.40;;
55575;SDS011;41437;45.478;9.116;2023-02-11T08:43:55;58.95;;;27.60;;
55575;SDS011;41437;45.478;9.116;2023-02-11T08:46:57;51.22;;;27.75;;
55575;SDS011;41437;45.478;9.116;2023-02-11T08:49:59;55.38;;;27.83;;
55575;SDS011;41437;45.478;9.116;2023-02-11T08:53:00;51.25;;;27.52;;
55575;SDS011;41437;45.478;9.116;2023-02-11T08:56:04;53.30;;;28.17;;
55575;SDS011;41437;45.478;9.116;2023-02-11T08:59:07;50.45;;;27.92;;
55575;SDS011;41437;45.478;9.116;2023-02-11T09:02:11;52.55;;;28.30;;
55575;SDS011;41437;45.478;9.116;2023-02-11T09:05:14;47.90;;;26.48;;
55575;SDS011;41437;45.478;9.116;2023-02-11T09:08:15;48.05;;;27.92;;
55575;SDS011;41437;45.478;9.116;2023-02-11T09:11:19;46.80;;;26.02;;
55575;SDS011;41437;45.478;9.116;2023-02-11T09:14:22;51.67;;;26.58;;
55575;SDS011;41437;45.478;9.116;2023-02-11T09:17:24;51.40;;;27.35;;
55575;SDS011;41437;45.478;9.116;2023-02-11T09:20:26;44.63;;;26.15;;
55575;SDS011;41437;45.478;9.116;2023-02-11T09:23:28;46.65;;;26.45;;
55575;SDS011;41437;45.478;9.116;2023-02-11T09:26:31;47.60;;;27.02;;
55575;SDS011;41437;45.478;9.116;2023-02-11T09:29:35;46.17;;;26.40;;
55575;SDS011;41437;45.478;9.116;2023-02-11T09:32:36;47.92;;;26.17;;
55575;SDS011;41437;45.478;9.116;2023-02-11T09:35:38;42.08;;;24.48;;
55575;SDS011;41437;45.478;9.116;2023-02-11T09:38:39;41.78;;;23.15;;
55575;SDS011;41437;45.478;9.116;2023-02-11T09:41:48;39.88;;;23.48;;
55575;SDS011;41437;45.478;9.116;2023-02-11T09:44:59;41.78;;;23.13;;
55575;SDS011;41437;45.478;9.116;2023-02-11T09:48:03;37.25;;;21.83;;
55575;SDS011;41437;45.478;9.116;2023-02-11T09:51:15;38.28;;;22.48;;
55575;SDS011;41437;45.478;9.116;2023-02-11T09:54:22;38.00;;;22.08;;
55575;SDS011;41437;45.478;9.116;2023-02-11T09:57:30;41.03;;;22.27;;
55575;SDS011;41437;45.478;9.116;2023-02-11T10:00:36;40.75;;;21.38;;
55575;SDS011;41437;45.478;9.116;2023-02-11T10:03:44;40.58;;;22.02;;
55575;SDS011;41437;45.478;9.116;2023-02-11T10:06:56;41.33;;;20.90;;
55575;SDS011;41437;45.478;9.116;2023-02-11T10:10:10;36.45;;;20.05;;
55575;SDS011;41437;45.478;9.116;2023-02-11T10:13:24;39.03;;;20.42;;
55575;SDS011;41437;45.478;9.116;2023-02-11T10:16:40;34.28;;;20.50;;
55575;SDS011;41437;45.478;9.116;2023-02-11T10:19:52;36.03;;;19.40;;
55575;SDS011;41437;45.478;9.116;2023-02-11T10:23:07;33.65;;;18.40;;
55575;SDS011;41437;45.478;9.116;2023-02-11T10:26:13;33.47;;;19.52;;
55575;SDS011;41437;45.478;9.116;2023-02-11T10:29:22;35.35;;;19.42;;
55575;SDS011;41437;45.478;9.116;2023-02-11T10:32:34;31.67;;;19.08;;
55575;SDS011;41437;45.478;9.116;2023-02-11T10:35:41;35.63;;;19.67;;
55575;SDS011;41437;45.478;9.116;2023-02-11T10:38:44;33.60;;;19.52;;
55575;SDS011;41437;45.478;9.116;2023-02-11T10:41:47;35.47;;;20.73;;
55575;SDS011;41437;45.478;9.116;2023-02-11T10:44:55;36.22;;;20.02;;
55575;SDS011;41437;45.478;9.116;2023-02-11T10:47:59;31.63;;;18.67;;
55575;SDS011;41437;45.478;9.116;2023-02-11T10:51:06;32.30;;;18.60;;
55575;SDS011;41437;45.478;9.116;2023-02-11T10:54:10;32.45;;;18.67;;
55575;SDS011;41437;45.478;9.116;2023-02-11T10:57:18;30.30;;;17.58;;
55575;SDS011;41437;45.478;9.116;2023-02-11T11:00:31;31.90;;;18.73;;
55575;SDS011;41437;45.478;9.116;2023-02-11T11:03:38;34.78;;;17.67;;
55575;SDS011;41437;45.478;9.116;2023-02-11T11:06:46;27.98;;;16.92;;
55575;SDS011;41437;45.478;9.116;2023-02-11T11:09:50;29.77;;;18.48;;
55575;SDS011;41437;45.478;9.116;2023-02-11T11:12:54;28.75;;;17.55;;
55575;SDS011;41437;45.478;9.116;2023-02-11T11:16:18;29.38;;;18.33;;
55575;SDS011;41437;45.478;9.116;2023-02-11T11:19:22;27.95;;;16.83;;
55575;SDS011;41437;45.478;9.116;2023-02-11T11:22:25;27.63;;;16.80;;
55575;SDS011;41437;45.478;9.116;2023-02-11T11:25:27;28.60;;;16.73;;
55575;SDS011;41437;45.478;9.116;2023-02-11T11:28:30;29.20;;;15.77;;
55575;SDS011;41437;45.478;9.116;2023-02-11T11:31:45;29.05;;;16.42;;
55575;SDS011;41437;45.478;9.116;2023-02-11T11:34:51;29.38;;;16.30;;
55575;SDS011;41437;45.478;9.116;2023-02-11T11:37:56;31.65;;;15.93;;
55575;SDS011;41437;45.478;9.116;2023-02-11T11:44:24;24.20;;;14.52;;
55575;SDS011;41437;45.478;9.116;2023-02-11T11:47:32;27.33;;;16.00;;
55575;SDS011;41437;45.478;9.116;2023-02-11T11:50:43;28.63;;;16.23;;
55575;SDS011;41437;45.478;9.116;2023-02-11T11:53:50;26.25;;;16.02;;
55575;SDS011;41437;45.478;9.116;2023-02-11T11:56:57;27.90;;;15.98;;
55575;SDS011;41437;45.478;9.116;2023-02-11T12:00:03;27.58;;;14.18;;
55575;SDS011;41437;45.478;9.116;2023-02-11T12:03:20;27.65;;;14.95;;
55575;SDS011;41437;45.478;9.116;2023-02-11T12:06:48;28.63;;;15.70;;
55575;SDS011;41437;45.478;9.116;2023-02-11T12:10:11;27.40;;;15.70;;
55575;SDS011;41437;45.478;9.116;2023-02-11T12:13:30;28.10;;;15.20;;
55575;SDS011;41437;45.478;9.116;2023-02-11T12:16:43;30.58;;;16.52;;
55575;SDS011;41437;45.478;9.116;2023-02-11T12:23:37;34.85;;;18.65;;
55575;SDS011;41437;45.478;9.116;2023-02-11T12:26:51;31.58;;;17.58;;
55575;SDS011;41437;45.478;9.116;2023-02-11T12:30:01;34.78;;;18.63;;
55575;SDS011;41437;45.478;9.116;2023-02-11T12:33:11;32.17;;;18.20;;
55575;SDS011;41437;45.478;9.116;2023-02-11T12:36:24;31.58;;;19.02;;
55575;SDS011;41437;45.478;9.116;2023-02-11T12:39:37;32.72;;;18.60;;
55575;SDS011;41437;45.478;9.116;2023-02-11T12:42:49;36.67;;;20.33;;
55575;SDS011;41437;45.478;9.116;2023-02-11T12:46:30;36.90;;;21.65;;
55575;SDS011;41437;45.478;9.116;2023-02-11T12:49:42;43.15;;;21.70;;
55575;SDS011;41437;45.478;9.116;2023-02-11T12:56:41;40.08;;;21.27;;
55575;SDS011;41437;45.478;9.116;2023-02-11T12:59:50;34.13;;;20.20;;
55575;SDS011;41437;45.478;9.116;2023-02-11T13:02:59;41.92;;;22.10;;
55575;SDS011;41437;45.478;9.116;2023-02-11T13:06:06;36.40;;;21.38;;
55575;SDS011;41437;45.478;9.116;2023-02-11T13:09:13;39.17;;;21.75;;
55575;SDS011;41437;45.478;9.116;2023-02-11T13:12:21;33.58;;;19.95;;
55575;SDS011;41437;45.478;9.116;2023-02-11T13:15:45;38.00;;;20.60;;
55575;SDS011;41437;45.478;9.116;2023-02-11T13:18:50;33.13;;;19.40;;
55575;SDS011;41437;45.478;9.116;2023-02-11T13:21:59;34.08;;;19.50;;
55575;SDS011;41437;45.478;9.116;2023-02-11T13:25:14;33.75;;;19.63;;
55575;SDS011;41437;45.478;9.116;2023-02-11T13:28:24;34.80;;;19.85;;
55575;SDS011;41437;45.478;9.116;2023-02-11T13:31:37;32.78;;;18.92;;
55575;SDS011;41437;45.478;9.116;2023-02-11T13:34:53;32.97;;;18.90;;
55575;SDS011;41437;45.478;9.116;2023-02-11T13:37:57;33.85;;;19.52;;
55575;SDS011;41437;45.478;9.116;2023-02-11T13:41:02;33.42;;;19.40;;
55575;SDS011;41437;45.478;9.116;2023-02-11T13:44:17;33.70;;;18.58;;
55575;SDS011;41437;45.478;9.116;2023-02-11T13:47:24;34.45;;;19.83;;
55575;SDS011;41437;45.478;9.116;2023-02-11T13:50:34;37.33;;;20.13;;
55575;SDS011;41437;45.478;9.116;2023-02-11T13:53:45;35.67;;;20.33;;
55575;SDS011;41437;45.478;9.116;2023-02-11T14:07:37;31.65;;;18.65;;
55575;SDS011;41437;45.478;9.116;2023-02-11T14:10:57;32.22;;;18.38;;
55575;SDS011;41437;45.478;9.116;2023-02-11T14:14:03;30.83;;;17.92;;
55575;SDS011;41437;45.478;9.116;2023-02-11T14:17:16;31.67;;;18.45;;
55575;SDS011;41437;45.478;9.116;2023-02-11T14:20:33;33.28;;;18.08;;
55575;SDS011;41437;45.478;9.116;2023-02-11T14:23:38;32.70;;;18.20;;
55575;SDS011;41437;45.478;9.116;2023-02-11T14:26:44;30.25;;;17.38;;
55575;SDS011;41437;45.478;9.116;2023-02-11T14:30:00;28.15;;;16.90;;
55575;SDS011;41437;45.478;9.116;2023-02-11T14:33:15;29.40;;;17.13;;
55575;SDS011;41437;45.478;9.116;2023-02-11T14:36:38;28.90;;;16.77;;
55575;SDS011;41437;45.478;9.116;2023-02-11T14:39:55;32.72;;;17.73;;
55575;SDS011;41437;45.478;9.116;2023-02-11T14:43:08;31.45;;;16.77;;
55575;SDS011;41437;45.478;9.116;2023-02-11T14:46:20;27.95;;;17.52;;
55575;SDS011;41437;45.478;9.116;2023-02-11T14:49:24;29.83;;;17.10;;
55575;SDS011;41437;45.478;9.116;2023-02-11T14:52:29;28.27;;;17.15;;
55575;SDS011;41437;45.478;9.116;2023-02-11T14:55:33;29.10;;;16.92;;
55575;SDS011;41437;45.478;9.116;2023-02-11T14:58:37;33.30;;;17.80;;
55575;SDS011;41437;45.478;9.116;2023-02-11T15:01:49;28.88;;;17.17;;
55575;SDS011;41437;45.478;9.116;2023-02-11T15:04:53;28.60;;;16.73;;
55575;SDS011;41437;45.478;9.116;2023-02-11T15:07:56;28.05;;;17.25;;
55575;SDS011;41437;45.478;9.116;2023-02-11T15:10:59;25.05;;;14.98;;
55575;SDS011;41437;45.478;9.116;2023-02-11T15:14:06;29.58;;;16.63;;
55575;SDS011;41437;45.478;9.116;2023-02-11T15:17:13;27.00;;;16.00;;
55575;SDS011;41437;45.478;9.116;2023-02-11T15:20:19;30.33;;;17.27;;
55575;SDS011;41437;45.478;9.116;2023-02-11T15:23:25;30.40;;;16.95;;
55575;SDS011;41437;45.478;9.116;2023-02-11T15:26:29;29.20;;;16.52;;
55575;SDS011;41437;45.478;9.116;2023-02-11T15:29:34;30.65;;;17.35;;
55575;SDS011;41437;45.478;9.116;2023-02-11T15:32:38;28.40;;;16.77;;
55575;SDS011;41437;45.478;9.116;2023-02-11T15:35:44;29.63;;;17.02;;
55575;SDS011;41437;45.478;9.116;2023-02-11T15:38:45;32.00;;;17.77;;
55575;SDS011;41437;45.478;9.116;2023-02-11T15:42:20;30.25;;;18.45;;
55575;SDS011;41437;45.478;9.116;2023-02-11T15:45:25;30.30;;;18.08;;
55575;SDS011;41437;45.478;9.116;2023-02-11T15:48:32;31.63;;;18.35;;
55575;SDS011;41437;45.478;9.116;2023-02-11T15:51:37;35.70;;;18.52;;
55575;SDS011;41437;45.478;9.116;2023-02-11T15:54:45;34.55;;;18.70;;
55575;SDS011;41437;45.478;9.116;2023-02-11T15:57:50;34.63;;;18.90;;
55575;SDS011;41437;45.478;9.116;2023-02-11T16:00:55;34.95;;;18.95;;
55575;SDS011;41437;45.478;9.116;2023-02-11T16:07:01;37.03;;;19.25;;
55575;SDS011;41437;45.478;9.116;2023-02-11T16:10:14;32.57;;;19.00;;
55575;SDS011;41437;45.478;9.116;2023-02-11T16:13:18;35.85;;;19.98;;
55575;SDS011;41437;45.478;9.116;2023-02-11T16:16:20;33.55;;;18.77;;
55575;SDS011;41437;45.478;9.116;2023-02-11T16:19:23;36.00;;;19.88;;
55575;SDS011;41437;45.478;9.116;2023-02-11T16:22:27;37.88;;;20.27;;
55575;SDS011;41437;45.478;9.116;2023-02-11T16:25:36;33.85;;;19.67;;
55575;SDS011;41437;45.478;9.116;2023-02-11T16:28:38;38.35;;;21.02;;
55575;SDS011;41437;45.478;9.116;2023-02-11T16:31:41;37.17;;;20.90;;
55575;SDS011;41437;45.478;9.116;2023-02-11T16:34:47;40.63;;;20.58;;
55575;SDS011;41437;45.478;9.116;2023-02-11T16:37:48;32.77;;;19.63;;
55575;SDS011;41437;45.478;9.116;2023-02-11T16:40:53;38.10;;;20.80;;
55575;SDS011;41437;45.478;9.116;2023-02-11T16:43:55;37.20;;;21.15;;
55575;SDS011;41437;45.478;9.116;2023-02-11T16:46:58;37.88;;;21.30;;
55575;SDS011;41437;45.478;9.116;2023-02-11T16:50:02;39.25;;;21.80;;
55575;SDS011;41437;45.478;9.116;2023-02-11T16:53:03;42.35;;;22.30;;
55575;SDS011;41437;45.478;9.116;2023-02-11T16:56:09;39.67;;;21.20;;
55575;SDS011;41437;45.478;9.116;2023-02-11T16:59:14;41.70;;;21.80;;
55575;SDS011;41437;45.478;9.116;2023-02-11T17:02:18;41.35;;;22.17;;
55575;SDS011;41437;45.478;9.116;2023-02-11T17:05:22;40.00;;;22.27;;
55575;SDS011;41437;45.478;9.116;2023-02-11T17:08:25;39.08;;;21.45;;
55575;SDS011;41437;45.478;9.116;2023-02-11T17:11:30;41.80;;;22.17;;
55575;SDS011;41437;45.478;9.116;2023-02-11T17:14:31;41.08;;;23.52;;
55575;SDS011;41437;45.478;9.116;2023-02-11T17:17:33;41.38;;;22.58;;
55575;SDS011;41437;45.478;9.116;2023-02-11T17:20:35;38.67;;;21.83;;
55575;SDS011;41437;45.478;9.116;2023-02-11T17:23:36;40.42;;;22.10;;
55575;SDS011;41437;45.478;9.116;2023-02-11T17:26:40;41.25;;;23.13;;
55575;SDS011;41437;45.478;9.116;2023-02-11T17:29:43;41.60;;;23.55;;
55575;SDS011;41437;45.478;9.116;2023-02-11T17:32:45;40.72;;;23.00;;
55575;SDS011;41437;45.478;9.116;2023-02-11T17:35:47;42.70;;;23.70;;
55575;SDS011;41437;45.478;9.116;2023-02-11T17:38:49;39.88;;;21.90;;
55575;SDS011;41437;45.478;9.116;2023-02-11T17:41:52;42.47;;;23.23;;
55575;SDS011;41437;45.478;9.116;2023-02-11T17:44:53;43.88;;;23.00;;
55575;SDS011;41437;45.478;9.116;2023-02-11T17:47:55;41.90;;;22.45;;
55575;SDS011;41437;45.478;9.116;2023-02-11T17:50:57;37.13;;;21.98;;
55575;SDS011;41437;45.478;9.116;2023-02-11T17:53:59;37.45;;;22.08;;
55575;SDS011;41437;45.478;9.116;2023-02-11T17:57:03;40.00;;;22.03;;
55575;SDS011;41437;45.478;9.116;2023-02-11T18:00:05;39.72;;;22.13;;
55575;SDS011;41437;45.478;9.116;2023-02-11T18:03:09;44.78;;;22.67;;
55575;SDS011;41437;45.478;9.116;2023-02-11T18:06:11;51.10;;;24.63;;
55575;SDS011;41437;45.478;9.116;2023-02-11T18:09:13;46.13;;;23.77;;
55575;SDS011;41437;45.478;9.116;2023-02-11T18:12:18;44.80;;;23.95;;
55575;SDS011;41437;45.478;9.116;2023-02-11T18:15:24;44.65;;;23.88;;
55575;SDS011;41437;45.478;9.116;2023-02-11T18:18:26;45.28;;;24.10;;
55575;SDS011;41437;45.478;9.116;2023-02-11T18:21:27;44.05;;;22.95;;
55575;SDS011;41437;45.478;9.116;2023-02-11T18:24:30;41.80;;;24.02;;
55575;SDS011;41437;45.478;9.116;2023-02-11T18:27:33;42.90;;;24.73;;
55575;SDS011;41437;45.478;9.116;2023-02-11T18:30:35;49.20;;;24.73;;
55575;SDS011;41437;45.478;9.116;2023-02-11T18:33:37;45.58;;;24.52;;
55575;SDS011;41437;45.478;9.116;2023-02-11T18:36:39;46.17;;;24.52;;
55575;SDS011;41437;45.478;9.116;2023-02-11T18:39:40;46.90;;;24.45;;
55575;SDS011;41437;45.478;9.116;2023-02-11T18:42:44;46.85;;;25.50;;
55575;SDS011;41437;45.478;9.116;2023-02-11T18:45:46;48.95;;;24.13;;
55575;SDS011;41437;45.478;9.116;2023-02-11T18:48:49;43.85;;;24.02;;